<?xml version='1.0' encoding='UTF-8'?><gpx version="1.1" creator="JPX - https://github.com/jenetics/jpx" xmlns="http://www.topografix.com/GPX/1/1"><trk><trkseg><trkpt lat="38.20903208319826" lon="15.497535846288995"><ele>543.6666666666667</ele><time>2026-04-28T15:04:53Z</time></trkpt><trkpt lat="38.20899035388216" lon="15.497469893906084"><ele>549.3333333333334</ele><time>2026-04-28T15:04:54Z</time></trkpt><trkpt lat="38.20890222225116" lon="15.497333280995134"><ele>555.0</ele><time>2026-04-28T15:04:56Z</time></trkpt><trkpt lat="38.20884273091399" lon="15.49727097195483"><ele>560.6666666666666</ele><time>2026-04-28T15:04:57Z</time></trkpt><trkpt lat="38.20878167706333" lon="15.497212543633072"><ele>566.3333333333333</ele><time>2026-04-28T15:04:58Z</time></trkpt><trkpt lat="38.208726259471064" lon="15.49716296630708"><ele>572.0</ele><time>2026-04-28T15:04:59Z</time></trkpt><trkpt lat="38.20862522570049" lon="15.497098060629522"><ele>572.0</ele><time>2026-04-28T15:05:01Z</time></trkpt><trkpt lat="38.20850399223259" lon="15.497087278912687"><ele>572.0</ele><time>2026-04-28T15:05:03Z</time></trkpt><trkpt lat="38.20839623692699" lon="15.497101230917787"><ele>572.0</ele><time>2026-04-28T15:05:05Z</time></trkpt><trkpt lat="38.20831724793697" lon="15.497084866809933"><ele>572.0</ele><time>2026-04-28T15:05:07Z</time></trkpt><trkpt lat="38.20828458516698" lon="15.496987757257445"><ele>572.0</ele><time>2026-04-28T15:05:11Z</time></trkpt><trkpt lat="38.20833287325311" lon="15.496835444310191"><ele>570.8333333333333</ele><time>2026-04-28T15:05:13Z</time></trkpt><trkpt lat="38.208335319063536" lon="15.496750801356841"><ele>569.6666666666666</ele><time>2026-04-28T15:05:14Z</time></trkpt><trkpt lat="38.208346362106134" lon="15.496618170076317"><ele>568.5</ele><time>2026-04-28T15:05:16Z</time></trkpt><trkpt lat="38.20834065313124" lon="15.496501336969896"><ele>567.3333333333334</ele><time>2026-04-28T15:05:18Z</time></trkpt><trkpt lat="38.20831337183088" lon="15.496423429943626"><ele>566.1666666666667</ele><time>2026-04-28T15:05:19Z</time></trkpt><trkpt lat="38.20828282952235" lon="15.49629242416065"><ele>565.0</ele><time>2026-04-28T15:05:21Z</time></trkpt><trkpt lat="38.20829659375399" lon="15.496204675881154"><ele>563.2</ele><time>2026-04-28T15:05:23Z</time></trkpt><trkpt lat="38.208334078395104" lon="15.496090796322093"><ele>561.4</ele><time>2026-04-28T15:05:25Z</time></trkpt><trkpt lat="38.20836026308276" lon="15.495994657898487"><ele>559.6</ele><time>2026-04-28T15:05:27Z</time></trkpt><trkpt lat="38.20836498148054" lon="15.495870463948359"><ele>557.8</ele><time>2026-04-28T15:05:30Z</time></trkpt><trkpt lat="38.20833823752041" lon="15.495770955409675"><ele>556.0</ele><time>2026-04-28T15:05:32Z</time></trkpt><trkpt lat="38.2082812065017" lon="15.495673629518977"><ele>556.0</ele><time>2026-04-28T15:05:35Z</time></trkpt><trkpt lat="38.20821330028168" lon="15.495620764038248"><ele>556.0</ele><time>2026-04-28T15:05:37Z</time></trkpt><trkpt lat="38.20814872776789" lon="15.495585407116442"><ele>556.0</ele><time>2026-04-28T15:05:39Z</time></trkpt><trkpt lat="38.20806951063002" lon="15.495563494792826"><ele>556.0</ele><time>2026-04-28T15:05:41Z</time></trkpt><trkpt lat="38.20798442548143" lon="15.495513120818696"><ele>556.0</ele><time>2026-04-28T15:05:43Z</time></trkpt><trkpt lat="38.20790217487379" lon="15.49549008234321"><ele>556.0</ele><time>2026-04-28T15:05:45Z</time></trkpt><trkpt lat="38.20783467986668" lon="15.495480643670918"><ele>557.8333333333334</ele><time>2026-04-28T15:05:47Z</time></trkpt><trkpt lat="38.20775257720781" lon="15.495489844984752"><ele>559.6666666666667</ele><time>2026-04-28T15:05:49Z</time></trkpt><trkpt lat="38.20765294751081" lon="15.495497900446987"><ele>561.5</ele><time>2026-04-28T15:05:51Z</time></trkpt><trkpt lat="38.20757524029554" lon="15.49550470950031"><ele>563.3333333333334</ele><time>2026-04-28T15:05:53Z</time></trkpt><trkpt lat="38.20750562484876" lon="15.49551566203242"><ele>565.1666666666666</ele><time>2026-04-28T15:05:55Z</time></trkpt><trkpt lat="38.207441170742115" lon="15.495469799275897"><ele>567.0</ele><time>2026-04-28T15:05:58Z</time></trkpt><trkpt lat="38.207455438578435" lon="15.495347394250201"><ele>567.0</ele><time>2026-04-28T15:06:01Z</time></trkpt><trkpt lat="38.20749849314863" lon="15.495265086521037"><ele>567.0</ele><time>2026-04-28T15:06:03Z</time></trkpt><trkpt lat="38.20748741453663" lon="15.495150321291035"><ele>567.0</ele><time>2026-04-28T15:06:06Z</time></trkpt><trkpt lat="38.20748307249809" lon="15.495060649974846"><ele>567.0</ele><time>2026-04-28T15:06:08Z</time></trkpt><trkpt lat="38.207470246416925" lon="15.494959809870412"><ele>567.0</ele><time>2026-04-28T15:06:10Z</time></trkpt><trkpt lat="38.207448048359595" lon="15.494822758508224"><ele>567.0</ele><time>2026-04-28T15:06:12Z</time></trkpt><trkpt lat="38.207426089050536" lon="15.49472519619251"><ele>567.0</ele><time>2026-04-28T15:06:14Z</time></trkpt><trkpt lat="38.20739567920744" lon="15.494617404425522"><ele>567.0</ele><time>2026-04-28T15:06:16Z</time></trkpt><trkpt lat="38.207355354564484" lon="15.494510146227897"><ele>567.0</ele><time>2026-04-28T15:06:18Z</time></trkpt><trkpt lat="38.20730178169114" lon="15.494430022560735"><ele>567.0</ele><time>2026-04-28T15:06:22Z</time></trkpt><trkpt lat="38.20724373743065" lon="15.494380749119939"><ele>567.0</ele><time>2026-04-28T15:06:24Z</time></trkpt><trkpt lat="38.207184657170984" lon="15.49432515650681"><ele>567.0</ele><time>2026-04-28T15:06:26Z</time></trkpt><trkpt lat="38.20711256001701" lon="15.49425710591671"><ele>569.6666666666666</ele><time>2026-04-28T15:06:29Z</time></trkpt><trkpt lat="38.207046901425315" lon="15.494181748103246"><ele>572.3333333333334</ele><time>2026-04-28T15:06:32Z</time></trkpt><trkpt lat="38.20699580745422" lon="15.494118444148624"><ele>575.0</ele><time>2026-04-28T15:06:34Z</time></trkpt><trkpt lat="38.206934118921524" lon="15.494069493907066"><ele>577.6666666666667</ele><time>2026-04-28T15:06:36Z</time></trkpt><trkpt lat="38.206844875959945" lon="15.49406830211174"><ele>580.3333333333334</ele><time>2026-04-28T15:06:38Z</time></trkpt><trkpt lat="38.206767927295054" lon="15.494083536759591"><ele>583.0</ele><time>2026-04-28T15:06:40Z</time></trkpt><trkpt lat="38.20669519109043" lon="15.494101426674153"><ele>583.0000000000001</ele><time>2026-04-28T15:06:42Z</time></trkpt><trkpt lat="38.206642668333764" lon="15.494055593361184"><ele>583.0</ele><time>2026-04-28T15:06:47Z</time></trkpt><trkpt lat="38.20663838338279" lon="15.493969438886202"><ele>583.0</ele><time>2026-04-28T15:06:49Z</time></trkpt><trkpt lat="38.206618788710784" lon="15.493881165232365"><ele>583.0</ele><time>2026-04-28T15:06:51Z</time></trkpt><trkpt lat="38.206556582436306" lon="15.493835676265762"><ele>583.0</ele><time>2026-04-28T15:06:53Z</time></trkpt><trkpt lat="38.20647395115238" lon="15.493800523271888"><ele>583.0000000000001</ele><time>2026-04-28T15:06:55Z</time></trkpt><trkpt lat="38.206413832445925" lon="15.493759104024294"><ele>583.0</ele><time>2026-04-28T15:06:57Z</time></trkpt><trkpt lat="38.20640876527321" lon="15.4936448804545"><ele>582.4285714285714</ele><time>2026-04-28T15:07:00Z</time></trkpt><trkpt lat="38.206445170929065" lon="15.493576272266914"><ele>581.8571428571429</ele><time>2026-04-28T15:07:02Z</time></trkpt><trkpt lat="38.20648677885032" lon="15.493486324649078"><ele>581.2857142857142</ele><time>2026-04-28T15:07:05Z</time></trkpt><trkpt lat="38.20650415906293" lon="15.49340878631493"><ele>580.7142857142858</ele><time>2026-04-28T15:07:07Z</time></trkpt><trkpt lat="38.20651478568874" lon="15.49332379341027"><ele>580.1428571428571</ele><time>2026-04-28T15:07:09Z</time></trkpt><trkpt lat="38.20656726446347" lon="15.493255056972352"><ele>579.5714285714286</ele><time>2026-04-28T15:07:11Z</time></trkpt><trkpt lat="38.206587873390454" lon="15.493178047295395"><ele>579.0</ele><time>2026-04-28T15:07:13Z</time></trkpt><trkpt lat="38.20661587986124" lon="15.493090848151967"><ele>579.0</ele><time>2026-04-28T15:07:15Z</time></trkpt><trkpt lat="38.20667394814424" lon="15.49304005163757"><ele>579.0</ele><time>2026-04-28T15:07:17Z</time></trkpt><trkpt lat="38.20675429766585" lon="15.493021856204884"><ele>579.0</ele><time>2026-04-28T15:07:19Z</time></trkpt><trkpt lat="38.206822251682716" lon="15.493008936871984"><ele>579.0</ele><time>2026-04-28T15:07:21Z</time></trkpt><trkpt lat="38.20689041227327" lon="15.492990246741192"><ele>579.0</ele><time>2026-04-28T15:07:23Z</time></trkpt><trkpt lat="38.206983360875846" lon="15.492963658877976"><ele>579.0</ele><time>2026-04-28T15:07:25Z</time></trkpt><trkpt lat="38.20706018320459" lon="15.492923357612646"><ele>580.2857142857142</ele><time>2026-04-28T15:07:27Z</time></trkpt><trkpt lat="38.207132781385035" lon="15.492879084472607"><ele>581.5714285714286</ele><time>2026-04-28T15:07:30Z</time></trkpt><trkpt lat="38.207185932794054" lon="15.492832267584367"><ele>582.8571428571429</ele><time>2026-04-28T15:07:33Z</time></trkpt><trkpt lat="38.207230734045346" lon="15.492775722279609"><ele>584.1428571428571</ele><time>2026-04-28T15:07:36Z</time></trkpt><trkpt lat="38.20727330200662" lon="15.492704242619245"><ele>585.4285714285714</ele><time>2026-04-28T15:07:39Z</time></trkpt><trkpt lat="38.207301095791706" lon="15.492622806138767"><ele>586.7142857142857</ele><time>2026-04-28T15:07:42Z</time></trkpt><trkpt lat="38.20731892188078" lon="15.492544198950498"><ele>588.0</ele><time>2026-04-28T15:07:45Z</time></trkpt><trkpt lat="38.20731801893476" lon="15.492429101856507"><ele>586.1666666666666</ele><time>2026-04-28T15:07:49Z</time></trkpt><trkpt lat="38.20733327597738" lon="15.492335319188935"><ele>584.3333333333334</ele><time>2026-04-28T15:07:51Z</time></trkpt><trkpt lat="38.207339444186594" lon="15.492235162658684"><ele>582.5</ele><time>2026-04-28T15:07:53Z</time></trkpt><trkpt lat="38.20733201398372" lon="15.492146805646163"><ele>580.6666666666667</ele><time>2026-04-28T15:07:55Z</time></trkpt><trkpt lat="38.20731025402137" lon="15.49204942510222"><ele>578.8333333333334</ele><time>2026-04-28T15:07:57Z</time></trkpt><trkpt lat="38.20725500211082" lon="15.49193554922951"><ele>577.0</ele><time>2026-04-28T15:08:00Z</time></trkpt><trkpt lat="38.207235925516876" lon="15.491816708161188"><ele>577.0</ele><time>2026-04-28T15:08:02Z</time></trkpt><trkpt lat="38.207239283367436" lon="15.491660845384494"><ele>577.0</ele><time>2026-04-28T15:08:04Z</time></trkpt><trkpt lat="38.207232506382695" lon="15.491500995125914"><ele>577.0</ele><time>2026-04-28T15:08:06Z</time></trkpt><trkpt lat="38.20725997526324" lon="15.491414699932811"><ele>577.0</ele><time>2026-04-28T15:08:07Z</time></trkpt><trkpt lat="38.20726736612038" lon="15.491327259690568"><ele>577.0</ele><time>2026-04-28T15:08:08Z</time></trkpt><trkpt lat="38.20729835076824" lon="15.491208882905015"><ele>577.0</ele><time>2026-04-28T15:08:10Z</time></trkpt><trkpt lat="38.2072812018702" lon="15.491118940547045"><ele>577.0</ele><time>2026-04-28T15:08:13Z</time></trkpt><trkpt lat="38.20720203222852" lon="15.491083663278957"><ele>577.0</ele><time>2026-04-28T15:08:16Z</time></trkpt><trkpt lat="38.20711717287239" lon="15.491169290914895"><ele>577.0</ele><time>2026-04-28T15:08:18Z</time></trkpt><trkpt lat="38.20708003560043" lon="15.491235781236137"><ele>577.0</ele><time>2026-04-28T15:08:20Z</time></trkpt><trkpt lat="38.20703741106431" lon="15.491296705857492"><ele>577.0</ele><time>2026-04-28T15:08:22Z</time></trkpt><trkpt lat="38.2069541281854" lon="15.491256262351154"><ele>577.0</ele><time>2026-04-28T15:08:28Z</time></trkpt><trkpt lat="38.20687611677235" lon="15.491227301036503"><ele>577.0</ele><time>2026-04-28T15:08:30Z</time></trkpt><trkpt lat="38.20679031725086" lon="15.491248667066337"><ele>577.0</ele><time>2026-04-28T15:08:32Z</time></trkpt><trkpt lat="38.20672329830304" lon="15.491315727986287"><ele>577.0</ele><time>2026-04-28T15:08:34Z</time></trkpt><trkpt lat="38.20665513152722" lon="15.491370463101045"><ele>577.0</ele><time>2026-04-28T15:08:36Z</time></trkpt><trkpt lat="38.2065917887945" lon="15.491329395666602"><ele>577.0</ele><time>2026-04-28T15:08:38Z</time></trkpt><trkpt lat="38.20650175666234" lon="15.491311168009636"><ele>575.8333333333334</ele><time>2026-04-28T15:08:40Z</time></trkpt><trkpt lat="38.206429340008896" lon="15.491284355810611"><ele>574.6666666666667</ele><time>2026-04-28T15:08:42Z</time></trkpt><trkpt lat="38.206369232481805" lon="15.49122806748893"><ele>573.5</ele><time>2026-04-28T15:08:44Z</time></trkpt><trkpt lat="38.2063014877531" lon="15.491190040006376"><ele>572.3333333333334</ele><time>2026-04-28T15:08:46Z</time></trkpt><trkpt lat="38.20622436350212" lon="15.49116247229199"><ele>571.1666666666666</ele><time>2026-04-28T15:08:53Z</time></trkpt><trkpt lat="38.206135309399805" lon="15.491148034009795"><ele>570.0</ele><time>2026-04-28T15:08:57Z</time></trkpt><trkpt lat="38.20606206991788" lon="15.491169782334305"><ele>570.0</ele><time>2026-04-28T15:09:00Z</time></trkpt><trkpt lat="38.2059828506106" lon="15.491206831915948"><ele>570.0</ele><time>2026-04-28T15:09:03Z</time></trkpt><trkpt lat="38.205934000095134" lon="15.491258809443572"><ele>570.0</ele><time>2026-04-28T15:09:05Z</time></trkpt><trkpt lat="38.20586065080202" lon="15.491317087559768"><ele>570.0</ele><time>2026-04-28T15:09:08Z</time></trkpt><trkpt lat="38.20582324000799" lon="15.491405960239968"><ele>570.0</ele><time>2026-04-28T15:09:11Z</time></trkpt><trkpt lat="38.205844681742704" lon="15.491513133647535"><ele>570.0</ele><time>2026-04-28T15:09:14Z</time></trkpt><trkpt lat="38.205915957396385" lon="15.491564296372605"><ele>574.0</ele><time>2026-04-28T15:09:16Z</time></trkpt><trkpt lat="38.20600002860588" lon="15.491523777254068"><ele>578.0</ele><time>2026-04-28T15:09:18Z</time></trkpt><trkpt lat="38.20608003909351" lon="15.491474807554754"><ele>582.0</ele><time>2026-04-28T15:09:21Z</time></trkpt><trkpt lat="38.206160005369284" lon="15.491467069322653"><ele>586.0</ele><time>2026-04-28T15:09:25Z</time></trkpt><trkpt lat="38.20615491025498" lon="15.491551754693676"><ele>590.0</ele><time>2026-04-28T15:09:29Z</time></trkpt><trkpt lat="38.20608991512145" lon="15.491573553883866"><ele>594.0</ele><time>2026-04-28T15:09:33Z</time></trkpt><trkpt lat="38.206019041321206" lon="15.491633655140733"><ele>594.0</ele><time>2026-04-28T15:09:35Z</time></trkpt><trkpt lat="38.205932553268106" lon="15.49165259648513"><ele>594.0</ele><time>2026-04-28T15:09:37Z</time></trkpt><trkpt lat="38.20581555589165" lon="15.491691101915956"><ele>594.0</ele><time>2026-04-28T15:09:39Z</time></trkpt><trkpt lat="38.20575362213159" lon="15.491668599356144"><ele>594.0</ele><time>2026-04-28T15:09:41Z</time></trkpt><trkpt lat="38.205680905866714" lon="15.491611675789674"><ele>594.0</ele><time>2026-04-28T15:09:44Z</time></trkpt><trkpt lat="38.20560686311818" lon="15.491532761357874"><ele>593.8333333333334</ele><time>2026-04-28T15:09:47Z</time></trkpt><trkpt lat="38.20555156229224" lon="15.491462640122652"><ele>593.6666666666666</ele><time>2026-04-28T15:09:49Z</time></trkpt><trkpt lat="38.20550182983308" lon="15.491394200561562"><ele>593.5</ele><time>2026-04-28T15:09:51Z</time></trkpt><trkpt lat="38.20545405481282" lon="15.491319291236193"><ele>593.3333333333333</ele><time>2026-04-28T15:09:53Z</time></trkpt><trkpt lat="38.20541721075317" lon="15.491244626872982"><ele>593.1666666666666</ele><time>2026-04-28T15:09:55Z</time></trkpt><trkpt lat="38.205385694022354" lon="15.491173553487966"><ele>593.0</ele><time>2026-04-28T15:09:57Z</time></trkpt><trkpt lat="38.20532236123365" lon="15.491069411986363"><ele>593.0</ele><time>2026-04-28T15:09:59Z</time></trkpt><trkpt lat="38.20526340327553" lon="15.490987013763155"><ele>593.0</ele><time>2026-04-28T15:10:01Z</time></trkpt><trkpt lat="38.20520499514261" lon="15.490928957490464"><ele>593.0</ele><time>2026-04-28T15:10:03Z</time></trkpt><trkpt lat="38.2051452753209" lon="15.49084287690698"><ele>593.0</ele><time>2026-04-28T15:10:06Z</time></trkpt><trkpt lat="38.205082190739034" lon="15.490788120385957"><ele>593.0</ele><time>2026-04-28T15:10:08Z</time></trkpt><trkpt lat="38.20501254241428" lon="15.490756022167588"><ele>593.0</ele><time>2026-04-28T15:10:10Z</time></trkpt><trkpt lat="38.20493177333129" lon="15.490728825347723"><ele>593.0</ele><time>2026-04-28T15:10:13Z</time></trkpt><trkpt lat="38.20485435300812" lon="15.490704071901783"><ele>593.0</ele><time>2026-04-28T15:10:15Z</time></trkpt><trkpt lat="38.204765691887445" lon="15.490680644906384"><ele>593.0</ele><time>2026-04-28T15:10:17Z</time></trkpt><trkpt lat="38.204689397935724" lon="15.490661144334927"><ele>593.0</ele><time>2026-04-28T15:10:19Z</time></trkpt><trkpt lat="38.20460782599721" lon="15.490643256915545"><ele>593.0</ele><time>2026-04-28T15:10:21Z</time></trkpt><trkpt lat="38.204502065602156" lon="15.49062589916851"><ele>593.0</ele><time>2026-04-28T15:10:24Z</time></trkpt><trkpt lat="38.20442008807894" lon="15.490620307701462"><ele>594.8333333333333</ele><time>2026-04-28T15:10:26Z</time></trkpt><trkpt lat="38.204341137612076" lon="15.490621887071288"><ele>596.6666666666666</ele><time>2026-04-28T15:10:28Z</time></trkpt><trkpt lat="38.20423841038338" lon="15.490639905054566"><ele>598.5</ele><time>2026-04-28T15:10:30Z</time></trkpt><trkpt lat="38.20415418515346" lon="15.49066458241844"><ele>600.3333333333334</ele><time>2026-04-28T15:10:32Z</time></trkpt><trkpt lat="38.20408213071905" lon="15.49070011618821"><ele>602.1666666666667</ele><time>2026-04-28T15:10:34Z</time></trkpt><trkpt lat="38.20400214071313" lon="15.490770519604977"><ele>604.0</ele><time>2026-04-28T15:11:13.999Z</time></trkpt><trkpt lat="38.203935493669164" lon="15.490868766730976"><ele>604.6666666666667</ele><time>2026-04-28T15:11:15.999Z</time></trkpt><trkpt lat="38.20388305233695" lon="15.49096677898008"><ele>605.3333333333334</ele><time>2026-04-28T15:11:17.999Z</time></trkpt><trkpt lat="38.20382444451633" lon="15.491070164247333"><ele>606.0</ele><time>2026-04-28T15:11:19.999Z</time></trkpt><trkpt lat="38.203774743358146" lon="15.491156540096526"><ele>606.6666666666666</ele><time>2026-04-28T15:11:21.999Z</time></trkpt><trkpt lat="38.20371740053286" lon="15.49123895794761"><ele>607.3333333333333</ele><time>2026-04-28T15:11:23.999Z</time></trkpt><trkpt lat="38.20363932905795" lon="15.491266674053621"><ele>608.0</ele><time>2026-04-28T15:11:26.999Z</time></trkpt><trkpt lat="38.20357491158174" lon="15.491340504326285"><ele>614.75</ele><time>2026-04-28T15:11:29.999Z</time></trkpt><trkpt lat="38.20352865498747" lon="15.491574025951016"><ele>621.5</ele><time>2026-04-28T15:11:34.999Z</time></trkpt><trkpt lat="38.20361873730806" lon="15.491628623276998"><ele>628.25</ele><time>2026-04-28T15:11:36.999Z</time></trkpt><trkpt lat="38.203710114036596" lon="15.491618636333074"><ele>635.0</ele><time>2026-04-28T15:11:39.999Z</time></trkpt><trkpt lat="38.20356384489538" lon="15.49159675071474"><ele>635.0</ele><time>2026-04-28T15:11:43.999Z</time></trkpt><trkpt lat="38.20346836051768" lon="15.491532276297763"><ele>635.0</ele><time>2026-04-28T15:11:44.999Z</time></trkpt><trkpt lat="38.203453930375595" lon="15.491398806522707"><ele>635.0</ele><time>2026-04-28T15:11:45.999Z</time></trkpt><trkpt lat="38.20338147357856" lon="15.491241405943958"><ele>635.0</ele><time>2026-04-28T15:11:47.999Z</time></trkpt><trkpt lat="38.203365872301354" lon="15.491151271547407"><ele>635.0</ele><time>2026-04-28T15:11:48.999Z</time></trkpt><trkpt lat="38.203313313250796" lon="15.491104811285691"><ele>632.6</ele><time>2026-04-28T15:11:49.999Z</time></trkpt><trkpt lat="38.20326780442369" lon="15.491048115392884"><ele>630.2</ele><time>2026-04-28T15:11:50.999Z</time></trkpt><trkpt lat="38.20317597237367" lon="15.490955140431266"><ele>627.8</ele><time>2026-04-28T15:11:52.999Z</time></trkpt><trkpt lat="38.20304361315379" lon="15.49087519475558"><ele>625.4</ele><time>2026-04-28T15:11:54.999Z</time></trkpt><trkpt lat="38.20295045604156" lon="15.490830732435295"><ele>623.0</ele><time>2026-04-28T15:11:55.999Z</time></trkpt><trkpt lat="38.20286683814669" lon="15.490771682970916"><ele>623.0</ele><time>2026-04-28T15:11:56.999Z</time></trkpt><trkpt lat="38.20277886567995" lon="15.490730099321317"><ele>623.0</ele><time>2026-04-28T15:11:57.999Z</time></trkpt><trkpt lat="38.20271696789944" lon="15.490699068937454"><ele>623.0</ele><time>2026-04-28T15:11:58.999Z</time></trkpt><trkpt lat="38.202633537243194" lon="15.490669170121235"><ele>623.0</ele><time>2026-04-28T15:11:59.999Z</time></trkpt><trkpt lat="38.20254565196628" lon="15.49065194353434"><ele>623.0</ele><time>2026-04-28T15:12:00.999Z</time></trkpt><trkpt lat="38.202446593533566" lon="15.49065303084116"><ele>623.0</ele><time>2026-04-28T15:12:01.999Z</time></trkpt><trkpt lat="38.20233143303341" lon="15.490650797432128"><ele>622.6</ele><time>2026-04-28T15:12:02.999Z</time></trkpt><trkpt lat="38.202206735829776" lon="15.490656412514118"><ele>622.1999999999999</ele><time>2026-04-28T15:12:03.999Z</time></trkpt><trkpt lat="38.20209325462717" lon="15.490656428915013"><ele>621.8</ele><time>2026-04-28T15:12:04.999Z</time></trkpt><trkpt lat="38.2020097521103" lon="15.490664273288655"><ele>621.4</ele><time>2026-04-28T15:12:05.999Z</time></trkpt><trkpt lat="38.2019218550455" lon="15.490649038678471"><ele>621.0</ele><time>2026-04-28T15:12:06.999Z</time></trkpt><trkpt lat="38.20184624668116" lon="15.490662876662041"><ele>621.0</ele><time>2026-04-28T15:12:07.999Z</time></trkpt><trkpt lat="38.20173106278518" lon="15.490673659354016"><ele>621.0</ele><time>2026-04-28T15:12:09.999Z</time></trkpt><trkpt lat="38.20163728856972" lon="15.490768212005205"><ele>621.0</ele><time>2026-04-28T15:12:11.999Z</time></trkpt><trkpt lat="38.20158218854908" lon="15.490823551984576"><ele>621.0</ele><time>2026-04-28T15:12:12.999Z</time></trkpt><trkpt lat="38.2014913098946" lon="15.490885616862647"><ele>621.0</ele><time>2026-04-28T15:12:14.999Z</time></trkpt><trkpt lat="38.20137915477511" lon="15.490873155724083"><ele>621.1666666666666</ele><time>2026-04-28T15:12:16.999Z</time></trkpt><trkpt lat="38.201285238364754" lon="15.490834152579096"><ele>621.3333333333334</ele><time>2026-04-28T15:12:18.999Z</time></trkpt><trkpt lat="38.20123058344295" lon="15.490790543832613"><ele>621.5</ele><time>2026-04-28T15:12:19.999Z</time></trkpt><trkpt lat="38.201168865130114" lon="15.490692841189777"><ele>621.6666666666667</ele><time>2026-04-28T15:12:21.999Z</time></trkpt><trkpt lat="38.201142153943906" lon="15.490615655118047"><ele>621.8333333333334</ele><time>2026-04-28T15:12:22.999Z</time></trkpt><trkpt lat="38.201098128640254" lon="15.490547300426647"><ele>622.0</ele><time>2026-04-28T15:12:23.999Z</time></trkpt><trkpt lat="38.20103583552984" lon="15.490478418920578"><ele>624.0</ele><time>2026-04-28T15:12:24.999Z</time></trkpt><trkpt lat="38.2009572236484" lon="15.490403496233192"><ele>626.0</ele><time>2026-04-28T15:12:25.999Z</time></trkpt><trkpt lat="38.20087265374316" lon="15.490329716409788"><ele>628.0</ele><time>2026-04-28T15:12:26.999Z</time></trkpt><trkpt lat="38.200791278931376" lon="15.49024007987856"><ele>630.0</ele><time>2026-04-28T15:12:27.999Z</time></trkpt><trkpt lat="38.200709536969605" lon="15.490169819194376"><ele>632.0</ele><time>2026-04-28T15:12:28.999Z</time></trkpt><trkpt lat="38.200639850460824" lon="15.490128431660274"><ele>632.0</ele><time>2026-04-28T15:12:29.999Z</time></trkpt><trkpt lat="38.20058109480925" lon="15.490081172191136"><ele>632.0</ele><time>2026-04-28T15:12:30.999Z</time></trkpt><trkpt lat="38.20048398794686" lon="15.490002948783816"><ele>632.0</ele><time>2026-04-28T15:12:32.999Z</time></trkpt><trkpt lat="38.20043612133807" lon="15.489895335257357"><ele>632.0</ele><time>2026-04-28T15:12:34.999Z</time></trkpt><trkpt lat="38.2004026339888" lon="15.48973716660187"><ele>632.0</ele><time>2026-04-28T15:12:37Z</time></trkpt><trkpt lat="38.20039382600014" lon="15.489634618939181"><ele>630.6</ele><time>2026-04-28T15:12:38Z</time></trkpt><trkpt lat="38.200414682437156" lon="15.489465147527248"><ele>629.2</ele><time>2026-04-28T15:12:40Z</time></trkpt><trkpt lat="38.20043394811904" lon="15.489367496351605"><ele>627.8</ele><time>2026-04-28T15:12:41Z</time></trkpt><trkpt lat="38.20044055844198" lon="15.489265157555533"><ele>626.4</ele><time>2026-04-28T15:12:42Z</time></trkpt><trkpt lat="38.20048314220075" lon="15.489182852941633"><ele>625.0</ele><time>2026-04-28T15:12:43Z</time></trkpt><trkpt lat="38.20053120019019" lon="15.489094890322567"><ele>625.0</ele><time>2026-04-28T15:12:44Z</time></trkpt><trkpt lat="38.20058130164726" lon="15.489025657942447"><ele>625.0</ele><time>2026-04-28T15:12:45Z</time></trkpt><trkpt lat="38.20060812473842" lon="15.488944918287551"><ele>625.0</ele><time>2026-04-28T15:12:46Z</time></trkpt><trkpt lat="38.20064448477474" lon="15.488875878207638"><ele>625.0</ele><time>2026-04-28T15:12:47Z</time></trkpt><trkpt lat="38.20065579096554" lon="15.488715657811134"><ele>625.0</ele><time>2026-04-28T15:12:49Z</time></trkpt><trkpt lat="38.20062677051217" lon="15.488644342427182"><ele>625.0</ele><time>2026-04-28T15:12:50Z</time></trkpt><trkpt lat="38.20058302978505" lon="15.488585053056925"><ele>624.8</ele><time>2026-04-28T15:12:51Z</time></trkpt><trkpt lat="38.20048979398967" lon="15.488485676291123"><ele>624.6</ele><time>2026-04-28T15:12:53Z</time></trkpt><trkpt lat="38.2004571627297" lon="15.488340014121123"><ele>624.4</ele><time>2026-04-28T15:12:55Z</time></trkpt><trkpt lat="38.20044941077803" lon="15.488243660818945"><ele>624.2</ele><time>2026-04-28T15:12:56Z</time></trkpt><trkpt lat="38.20044631175217" lon="15.488145482551314"><ele>624.0</ele><time>2026-04-28T15:12:57Z</time></trkpt><trkpt lat="38.20043677754645" lon="15.488043585543377"><ele>624.0</ele><time>2026-04-28T15:12:58Z</time></trkpt><trkpt lat="38.20042461367672" lon="15.4879321755234"><ele>624.0</ele><time>2026-04-28T15:12:59Z</time></trkpt><trkpt lat="38.20042029407706" lon="15.48782210462819"><ele>624.0</ele><time>2026-04-28T15:13:00Z</time></trkpt><trkpt lat="38.20041397658634" lon="15.487723254958897"><ele>624.0</ele><time>2026-04-28T15:13:01Z</time></trkpt><trkpt lat="38.200403098464" lon="15.487621374827471"><ele>624.0</ele><time>2026-04-28T15:13:02Z</time></trkpt><trkpt lat="38.20038448841527" lon="15.487530218101835"><ele>624.0</ele><time>2026-04-28T15:13:03Z</time></trkpt><trkpt lat="38.20036947980613" lon="15.487436526991168"><ele>622.0</ele><time>2026-04-28T15:13:04Z</time></trkpt><trkpt lat="38.200361387928666" lon="15.48727177765081"><ele>620.0</ele><time>2026-04-28T15:13:06Z</time></trkpt><trkpt lat="38.20034599016202" lon="15.487113987876102"><ele>618.0</ele><time>2026-04-28T15:13:08Z</time></trkpt><trkpt lat="38.20031101371658" lon="15.486963257126462"><ele>616.0</ele><time>2026-04-28T15:13:10Z</time></trkpt><trkpt lat="38.20024655672816" lon="15.486832911435581"><ele>613.0</ele><time>2026-04-28T15:13:12Z</time></trkpt><trkpt lat="38.20020387258623" lon="15.486764812782365"><ele>610.0</ele><time>2026-04-28T15:13:13Z</time></trkpt><trkpt lat="38.200159405534734" lon="15.48669998734676"><ele>607.0</ele><time>2026-04-28T15:13:14Z</time></trkpt><trkpt lat="38.200058268056225" lon="15.486610405960262"><ele>604.0</ele><time>2026-04-28T15:13:16Z</time></trkpt><trkpt lat="38.19999927799117" lon="15.486571688397733"><ele>601.0</ele><time>2026-04-28T15:13:17Z</time></trkpt><trkpt lat="38.199943310587145" lon="15.486522113576573"><ele>598.0</ele><time>2026-04-28T15:13:18Z</time></trkpt><trkpt lat="38.1998811953441" lon="15.486492553453502"><ele>598.1428571428571</ele><time>2026-04-28T15:13:19Z</time></trkpt><trkpt lat="38.199817096070646" lon="15.486465578304966"><ele>598.2857142857143</ele><time>2026-04-28T15:13:20Z</time></trkpt><trkpt lat="38.19975605264531" lon="15.486439887912438"><ele>598.4285714285714</ele><time>2026-04-28T15:13:21Z</time></trkpt><trkpt lat="38.19969169172498" lon="15.486411029343223"><ele>598.5714285714286</ele><time>2026-04-28T15:13:22Z</time></trkpt><trkpt lat="38.19962849137765" lon="15.486382410804787"><ele>598.7142857142857</ele><time>2026-04-28T15:13:23Z</time></trkpt><trkpt lat="38.19956423701782" lon="15.486371285990733"><ele>598.8571428571429</ele><time>2026-04-28T15:13:24Z</time></trkpt><trkpt lat="38.19946153616112" lon="15.486303322859955"><ele>599.0</ele><time>2026-04-28T15:13:26Z</time></trkpt><trkpt lat="38.19936543883299" lon="15.486244572315773"><ele>599.0</ele><time>2026-04-28T15:13:28Z</time></trkpt><trkpt lat="38.199356388699385" lon="15.486120503205129"><ele>599.0</ele><time>2026-04-28T15:13:30Z</time></trkpt><trkpt lat="38.19941468193412" lon="15.485994853026547"><ele>599.0</ele><time>2026-04-28T15:13:32Z</time></trkpt><trkpt lat="38.19944944634976" lon="15.485870895686512"><ele>599.0</ele><time>2026-04-28T15:13:34Z</time></trkpt><trkpt lat="38.19941216067281" lon="15.485749281124376"><ele>599.0</ele><time>2026-04-28T15:13:36Z</time></trkpt><trkpt lat="38.19933712149453" lon="15.48566421533594"><ele>599.0</ele><time>2026-04-28T15:13:38Z</time></trkpt><trkpt lat="38.19924901918413" lon="15.485639840550979"><ele>599.0</ele><time>2026-04-28T15:13:40Z</time></trkpt><trkpt lat="38.19919404964965" lon="15.485563396230322"><ele>599.0</ele><time>2026-04-28T15:13:42Z</time></trkpt><trkpt lat="38.19916546023098" lon="15.48548184554295"><ele>599.0</ele><time>2026-04-28T15:13:44Z</time></trkpt><trkpt lat="38.19917526210653" lon="15.48536826107042"><ele>599.0</ele><time>2026-04-28T15:13:46Z</time></trkpt><trkpt lat="38.19923030641546" lon="15.485260564679308"><ele>599.0</ele><time>2026-04-28T15:13:48Z</time></trkpt><trkpt lat="38.199339557399334" lon="15.485234415042202"><ele>598.5714285714286</ele><time>2026-04-28T15:13:50Z</time></trkpt><trkpt lat="38.19940262078581" lon="15.48521336562887"><ele>598.1428571428571</ele><time>2026-04-28T15:13:51Z</time></trkpt><trkpt lat="38.19947268084882" lon="15.48519526818005"><ele>597.7142857142857</ele><time>2026-04-28T15:13:52Z</time></trkpt><trkpt lat="38.19953659310208" lon="15.485189084404462"><ele>597.2857142857142</ele><time>2026-04-28T15:13:53Z</time></trkpt><trkpt lat="38.19961514432134" lon="15.485156881422679"><ele>596.8571428571428</ele><time>2026-04-28T15:13:54Z</time></trkpt><trkpt lat="38.19969211366327" lon="15.48514393607678"><ele>596.4285714285714</ele><time>2026-04-28T15:13:55Z</time></trkpt><trkpt lat="38.199760528525594" lon="15.485129081963773"><ele>596.0</ele><time>2026-04-28T15:13:56Z</time></trkpt><trkpt lat="38.199826807246524" lon="15.485097044244018"><ele>591.8</ele><time>2026-04-28T15:13:57Z</time></trkpt><trkpt lat="38.19988833789717" lon="15.485062006806048"><ele>587.6</ele><time>2026-04-28T15:13:58Z</time></trkpt><trkpt lat="38.19995644780943" lon="15.48503522187356"><ele>583.4</ele><time>2026-04-28T15:13:59Z</time></trkpt><trkpt lat="38.20008306056508" lon="15.485000440406006"><ele>579.2</ele><time>2026-04-28T15:14:01Z</time></trkpt><trkpt lat="38.20020292402971" lon="15.484969573844493"><ele>575.0</ele><time>2026-04-28T15:14:03Z</time></trkpt><trkpt lat="38.20029157512323" lon="15.484911518997015"><ele>575.0</ele><time>2026-04-28T15:14:05Z</time></trkpt><trkpt lat="38.20029588658163" lon="15.484819097420477"><ele>575.0</ele><time>2026-04-28T15:14:06.999Z</time></trkpt><trkpt lat="38.20027450785637" lon="15.484715335804879"><ele>575.0</ele><time>2026-04-28T15:14:08.999Z</time></trkpt><trkpt lat="38.20023227721454" lon="15.484639493060635"><ele>575.0</ele><time>2026-04-28T15:14:09.999Z</time></trkpt><trkpt lat="38.20017909413084" lon="15.484559005892786"><ele>575.0</ele><time>2026-04-28T15:14:10.999Z</time></trkpt><trkpt lat="38.20013091255659" lon="15.484488983351135"><ele>575.0</ele><time>2026-04-28T15:14:11.999Z</time></trkpt><trkpt lat="38.20008986002029" lon="15.48442431150813"><ele>573.4</ele><time>2026-04-28T15:14:12.999Z</time></trkpt><trkpt lat="38.20004448142954" lon="15.484355230600679"><ele>571.8</ele><time>2026-04-28T15:14:14Z</time></trkpt><trkpt lat="38.200000849742835" lon="15.484290385830704"><ele>570.2</ele><time>2026-04-28T15:14:15Z</time></trkpt><trkpt lat="38.19992903354105" lon="15.484172897460832"><ele>568.6</ele><time>2026-04-28T15:14:17Z</time></trkpt><trkpt lat="38.199882318771515" lon="15.484061044051051"><ele>567.0</ele><time>2026-04-28T15:14:19Z</time></trkpt><trkpt lat="38.199862183244356" lon="15.483930997424547"><ele>567.0</ele><time>2026-04-28T15:14:20.999Z</time></trkpt><trkpt lat="38.199877338409536" lon="15.483788955887269"><ele>567.0</ele><time>2026-04-28T15:14:22.999Z</time></trkpt><trkpt lat="38.19989059158417" lon="15.483698786843226"><ele>567.0</ele><time>2026-04-28T15:14:23.999Z</time></trkpt><trkpt lat="38.19990932020698" lon="15.48360827864379"><ele>567.0</ele><time>2026-04-28T15:14:24.999Z</time></trkpt><trkpt lat="38.19992912578784" lon="15.48352676194399"><ele>567.0</ele><time>2026-04-28T15:14:25.999Z</time></trkpt><trkpt lat="38.1999687120304" lon="15.483371961306672"><ele>566.4</ele><time>2026-04-28T15:14:27.999Z</time></trkpt><trkpt lat="38.199997555544826" lon="15.483278919549708"><ele>565.8000000000001</ele><time>2026-04-28T15:14:28.999Z</time></trkpt><trkpt lat="38.20003186201599" lon="15.483152274834772"><ele>565.2</ele><time>2026-04-28T15:14:30.999Z</time></trkpt><trkpt lat="38.2000472758245" lon="15.482995412348954"><ele>564.6</ele><time>2026-04-28T15:14:32.999Z</time></trkpt><trkpt lat="38.20003416821056" lon="15.482915735833043"><ele>564.0</ele><time>2026-04-28T15:14:33.999Z</time></trkpt><trkpt lat="38.20000721326196" lon="15.482822142353351"><ele>563.2</ele><time>2026-04-28T15:14:34.999Z</time></trkpt><trkpt lat="38.199964599499395" lon="15.482682509143663"><ele>562.4</ele><time>2026-04-28T15:14:35.999Z</time></trkpt><trkpt lat="38.19992888162141" lon="15.48254251905367"><ele>561.6</ele><time>2026-04-28T15:14:36.998Z</time></trkpt><trkpt lat="38.199907652746695" lon="15.482433494290953"><ele>560.8</ele><time>2026-04-28T15:14:37.998Z</time></trkpt><trkpt lat="38.199891377649024" lon="15.482342219757964"><ele>560.0</ele><time>2026-04-28T15:14:38.998Z</time></trkpt><trkpt lat="38.199873337518135" lon="15.482259063922967"><ele>560.0</ele><time>2026-04-28T15:14:39.998Z</time></trkpt><trkpt lat="38.199854057865075" lon="15.4821764552812"><ele>560.0</ele><time>2026-04-28T15:14:40.998Z</time></trkpt><trkpt lat="38.19980291367062" lon="15.482040472162392"><ele>560.0</ele><time>2026-04-28T15:14:42.998Z</time></trkpt><trkpt lat="38.19976067025334" lon="15.48197491660969"><ele>560.0</ele><time>2026-04-28T15:14:43.998Z</time></trkpt><trkpt lat="38.199698868487076" lon="15.481912083661916"><ele>560.0</ele><time>2026-04-28T15:14:44.998Z</time></trkpt><trkpt lat="38.19964107308803" lon="15.481868174743054"><ele>560.0</ele><time>2026-04-28T15:14:45.998Z</time></trkpt><trkpt lat="38.19955221856066" lon="15.481805340821138"><ele>561.1666666666666</ele><time>2026-04-28T15:14:47.998Z</time></trkpt><trkpt lat="38.19950902034515" lon="15.481722382748064"><ele>562.3333333333333</ele><time>2026-04-28T15:14:50.998Z</time></trkpt><trkpt lat="38.19959440241544" lon="15.481719212367496"><ele>563.5</ele><time>2026-04-28T15:14:57.998Z</time></trkpt><trkpt lat="38.199662941424336" lon="15.48174516200499"><ele>564.6666666666666</ele><time>2026-04-28T15:15:00.998Z</time></trkpt><trkpt lat="38.199723893923064" lon="15.481793389026864"><ele>565.8333333333334</ele><time>2026-04-28T15:15:03.998Z</time></trkpt><trkpt lat="38.1997722554565" lon="15.481859495785999"><ele>567.0</ele><time>2026-04-28T15:15:05.998Z</time></trkpt><trkpt lat="38.1998311355863" lon="15.481922388679216"><ele>567.0</ele><time>2026-04-28T15:15:07.998Z</time></trkpt><trkpt lat="38.1998995887848" lon="15.48195422838969"><ele>544.0</ele><time>2026-04-28T15:15:09.998Z</time></trkpt><trkpt lat="38.19998700525071" lon="15.48199496016763"><ele>544.0</ele><time>2026-04-28T15:15:13.998Z</time></trkpt></trkseg></trk></gpx>